Time;durP1;ratioP1;P1;durP2;ratioP2;P2;SDS_P1;SDS_P2;PMS_P1;PMS_P2;Temp;Humidity;BMP_temperature;BMP_pressure;BME280_temperature;BME280_humidity;BME280_pressure;Samples;Min_cycle;Max_cycle;Signal;HPM_P1;HPM_P2
2022/09/01 00:01:19;;;;;;;2.47;0.95;;;12.50;82.00;;;;;;4892068;29;20040;-85
2022/09/01 00:03:47;;;;;;;0.50;0.50;;;12.40;81.80;;;;;;4884320;29;20056;-86
2022/09/01 00:06:14;;;;;;;0.77;0.60;;;12.40;82.20;;;;;;4887176;29;20111;-84
2022/09/01 00:08:39;;;;;;;1.45;0.70;;;12.30;82.50;;;;;;4887669;29;20029;-84
2022/09/01 00:11:05;;;;;;;1.02;0.90;;;12.30;82.00;;;;;;4894303;29;20527;-84
2022/09/01 00:13:32;;;;;;;1.00;0.82;;;12.20;82.40;;;;;;4899842;29;20119;-84
2022/09/01 00:15:59;;;;;;;3.47;0.98;;;12.20;82.70;;;;;;4896710;29;20516;-85
2022/09/01 00:18:25;;;;;;;1.80;0.80;;;12.10;82.70;;;;;;4897211;29;20044;-85
2022/09/01 00:20:50;;;;;;;1.85;0.70;;;12.10;83.00;;;;;;4895140;29;20032;-85
2022/09/01 00:23:16;;;;;;;0.73;0.70;;;12.10;83.20;;;;;;4909118;29;20028;-85
2022/09/01 00:25:41;;;;;;;1.42;0.70;;;12.10;83.00;;;;;;4894576;29;20105;-83
2022/09/01 00:28:07;;;;;;;1.65;0.75;;;12.00;83.40;;;;;;4907947;29;20044;-84
2022/09/01 00:30:32;;;;;;;4.15;0.95;;;11.90;83.40;;;;;;4892961;29;20037;-87
2022/09/01 00:32:58;;;;;;;2.10;0.93;;;11.90;83.90;;;;;;4895233;29;20446;-84
2022/09/01 00:35:23;;;;;;;2.72;0.75;;;11.90;84.10;;;;;;4894920;29;20033;-84
2022/09/01 00:37:49;;;;;;;1.77;0.90;;;11.90;84.10;;;;;;4895159;29;20496;-85
2022/09/01 00:40:16;;;;;;;0.90;0.63;;;11.90;84.40;;;;;;4897248;29;20501;-84
2022/09/01 00:42:45;;;;;;;1.38;0.65;;;11.80;84.10;;;;;;4894556;29;20056;-86
2022/09/01 00:45:11;;;;;;;1.15;0.70;;;11.80;84.20;;;;;;4891951;29;20035;-84
2022/09/01 00:47:37;;;;;;;2.05;0.70;;;11.80;84.60;;;;;;4901169;29;20044;-86
2022/09/01 00:50:05;;;;;;;1.92;0.60;;;11.80;84.70;;;;;;4891712;29;20033;-85
2022/09/01 00:52:39;;;;;;;0.98;0.80;;;11.90;85.00;;;;;;4916618;29;20076;-85
2022/09/01 00:55:16;;;;;;;4.95;0.80;;;11.90;85.20;;;;;;4896268;29;20052;-84
2022/09/01 00:57:42;;;;;;;1.42;0.80;;;12.00;85.00;;;;;;4901308;29;20571;-86
2022/09/01 01:00:17;;;;;;;1.10;0.77;;;12.00;85.10;;;;;;4899676;29;20085;-85
2022/09/01 01:02:46;;;;;;;1.52;0.90;;;12.00;85.10;;;;;;4903000;29;20080;-85
2022/09/01 01:05:12;;;;;;;2.92;0.75;;;12.00;85.00;;;;;;4892280;29;20494;-84
2022/09/01 01:07:42;;;;;;;0.73;0.60;;;12.10;85.20;;;;;;4898501;29;20052;-86
2022/09/01 01:10:10;;;;;;;0.63;0.60;;;12.10;85.00;;;;;;4903933;29;20473;-85
2022/09/01 01:12:39;;;;;;;2.67;0.60;;;12.10;85.20;;;;;;4898952;29;20051;-86
2022/09/01 01:15:07;;;;;;;5.47;1.00;;;12.10;85.10;;;;;;4895739;29;20020;-85
2022/09/01 01:17:33;;;;;;;2.20;0.68;;;12.10;85.20;;;;;;4898391;29;20017;-85
2022/09/01 01:23:07;;;;;;;1.52;0.80;;;12.00;85.30;;;;;;4886340;29;20088;-84
2022/09/01 01:25:47;;;;;;;1.48;0.70;;;12.00;85.40;;;;;;4898659;29;20497;-86
2022/09/01 01:28:25;;;;;;;1.20;0.70;;;12.00;85.30;;;;;;4899782;29;20029;-84
2022/09/01 01:31:14;;;;;;;1.33;0.65;;;11.90;85.00;;;;;;4892294;29;20140;-84
2022/09/01 01:33:46;;;;;;;1.13;0.70;;;11.80;85.40;;;;;;4892220;29;20031;-84
2022/09/01 01:36:15;;;;;;;3.97;1.00;;;11.80;85.50;;;;;;4898970;29;20037;-84
2022/09/01 01:38:44;;;;;;;1.50;0.70;;;11.70;85.60;;;;;;4903526;29;20024;-85
2022/09/01 01:41:10;;;;;;;0.98;0.70;;;11.70;85.50;;;;;;4889418;29;20028;-84
2022/09/01 01:43:37;;;;;;;2.05;0.90;;;11.60;85.50;;;;;;4890906;29;20452;-85
2022/09/01 01:46:06;;;;;;;1.83;0.80;;;11.60;86.00;;;;;;4901231;29;20009;-85
2022/09/01 01:48:34;;;;;;;1.52;0.68;;;11.50;86.20;;;;;;4902289;29;20036;-83
2022/09/01 01:51:01;;;;;;;3.65;0.80;;;11.50;86.00;;;;;;4901324;29;20201;-83
2022/09/01 01:53:28;;;;;;;2.22;0.95;;;11.40;86.20;;;;;;4912889;29;20057;-83
2022/09/01 01:55:54;;;;;;;3.55;0.80;;;11.40;86.70;;;;;;4890947;29;20048;-84
2022/09/01 01:58:24;;;;;;;1.48;0.80;;;11.40;86.60;;;;;;4896532;29;20040;-84
2022/09/01 02:00:52;;;;;;;0.95;0.60;;;11.30;87.00;;;;;;4896579;29;20044;-85
2022/09/01 02:03:21;;;;;;;1.33;0.75;;;11.30;86.90;;;;;;4901231;29;20048;-84
2022/09/01 02:05:48;;;;;;;2.08;0.82;;;11.20;87.10;;;;;;4894124;29;20032;-84
2022/09/01 02:08:17;;;;;;;1.80;1.05;;;11.20;87.60;;;;;;4900864;29;20028;-85
2022/09/01 02:10:44;;;;;;;0.90;0.88;;;11.20;87.60;;;;;;4894445;29;20108;-85
2022/09/01 02:13:16;;;;;;;1.27;0.68;;;11.10;87.40;;;;;;4900765;29;20029;-84
2022/09/01 02:15:48;;;;;;;3.60;0.90;;;11.10;87.40;;;;;;4899674;29;20430;-85
2022/09/01 02:18:20;;;;;;;0.98;0.80;;;11.10;87.30;;;;;;4885945;29;20025;-86
2022/09/01 02:20:50;;;;;;;2.75;1.00;;;11.10;87.90;;;;;;4886172;29;20459;-84
2022/09/01 02:23:22;;;;;;;1.23;0.90;;;11.00;87.80;;;;;;4901472;29;20028;-83
2022/09/01 02:25:49;;;;;;;1.10;0.75;;;11.00;87.70;;;;;;4893607;29;20084;-83
2022/09/01 02:28:17;;;;;;;3.65;1.10;;;11.00;88.20;;;;;;4901146;29;20033;-84
2022/09/01 02:30:58;;;;;;;2.35;0.80;;;11.00;88.20;;;;;;4896419;29;20528;-85
2022/09/01 02:33:26;;;;;;;1.10;0.95;;;10.90;87.90;;;;;;4915493;29;20032;-84
2022/09/01 02:35:55;;;;;;;2.78;0.90;;;10.90;88.20;;;;;;4892584;29;20032;-84
2022/09/01 02:38:25;;;;;;;0.80;0.77;;;10.80;88.00;;;;;;4902907;29;20080;-84
2022/09/01 02:40:52;;;;;;;1.60;1.20;;;10.80;88.20;;;;;;4896655;29;20139;-84
2022/09/01 02:43:19;;;;;;;1.95;1.08;;;10.70;88.40;;;;;;4900828;29;20484;-84
2022/09/01 02:45:46;;;;;;;3.90;0.90;;;10.60;88.80;;;;;;4881847;29;20144;-84
2022/09/01 02:48:12;;;;;;;1.42;1.00;;;10.70;89.10;;;;;;4893084;29;20048;-86
2022/09/01 02:50:40;;;;;;;2.10;0.90;;;10.60;89.20;;;;;;4896705;29;20044;-84
2022/09/01 02:53:08;;;;;;;4.97;1.08;;;10.60;89.40;;;;;;4893135;29;20103;-84
2022/09/01 02:55:38;;;;;;;3.78;1.10;;;10.60;89.60;;;;;;4899962;29;20029;-83
2022/09/01 02:58:04;;;;;;;3.45;1.30;;;10.60;89.70;;;;;;4910489;23;20031;-70
2022/09/01 03:00:32;;;;;;;1.63;1.00;;;10.60;89.70;;;;;;4916549;29;20156;-68
2022/09/01 03:02:59;;;;;;;2.88;1.00;;;10.60;90.00;;;;;;4912237;29;20023;-68
2022/09/01 03:05:28;;;;;;;1.90;1.10;;;10.50;89.80;;;;;;4917163;29;20028;-67
2022/09/01 03:07:57;;;;;;;2.55;1.00;;;10.50;89.80;;;;;;4898443;29;20373;-68
2022/09/01 03:10:29;;;;;;;1.50;1.10;;;10.40;89.70;;;;;;4900919;29;20380;-68
2022/09/01 03:12:55;;;;;;;1.65;1.30;;;10.40;89.60;;;;;;4904076;29;20119;-67
2022/09/01 03:15:22;;;;;;;1.88;1.25;;;10.40;89.80;;;;;;4901460;29;20106;-69
2022/09/01 03:17:47;;;;;;;2.63;1.02;;;10.30;89.50;;;;;;4911862;29;20126;-68
2022/09/01 03:20:13;;;;;;;2.17;1.20;;;10.30;89.90;;;;;;4911898;29;20040;-68
2022/09/01 03:22:39;;;;;;;1.40;1.02;;;10.30;90.00;;;;;;4909133;29;20119;-69
2022/09/01 03:25:04;;;;;;;1.45;0.90;;;10.30;90.00;;;;;;4910966;29;20071;-68
2022/09/01 03:27:30;;;;;;;3.08;1.20;;;10.30;90.00;;;;;;4906050;29;20127;-69
2022/09/01 03:29:55;;;;;;;2.55;1.40;;;10.30;90.10;;;;;;4910115;29;20042;-69
2022/09/01 03:32:21;;;;;;;3.63;1.55;;;10.30;90.90;;;;;;4899497;29;20044;-69
2022/09/01 03:34:46;;;;;;;3.40;1.50;;;10.40;91.10;;;;;;4910187;29;20364;-68
2022/09/01 03:37:12;;;;;;;2.13;1.30;;;10.40;91.30;;;;;;4910462;29;20028;-68
2022/09/01 03:39:37;;;;;;;2.20;1.40;;;10.40;91.40;;;;;;4908825;29;20059;-68
2022/09/01 03:42:03;;;;;;;5.68;1.67;;;10.50;91.50;;;;;;4906226;29;20480;-68
2022/09/01 03:44:29;;;;;;;3.88;1.40;;;10.50;91.60;;;;;;4910681;29;20096;-68
2022/09/01 03:46:57;;;;;;;2.90;1.70;;;10.60;92.00;;;;;;4910961;29;20063;-68
2022/09/01 03:49:23;;;;;;;2.90;1.50;;;10.60;92.00;;;;;;4907763;29;20371;-68
2022/09/01 03:51:52;;;;;;;2.40;1.45;;;10.60;91.90;;;;;;4898239;29;20056;-68
2022/09/01 03:54:18;;;;;;;2.15;1.50;;;10.60;92.00;;;;;;4904273;29;20091;-68
2022/09/01 03:56:44;;;;;;;2.30;1.50;;;10.60;92.00;;;;;;4910030;29;20032;-69
2022/09/01 03:59:15;;;;;;;1.77;1.48;;;10.60;91.90;;;;;;4899360;29;20086;-69
2022/09/01 04:01:42;;;;;;;3.00;1.50;;;10.50;91.90;;;;;;4904028;29;20028;-69
2022/09/01 04:04:12;;;;;;;5.88;1.73;;;10.50;92.00;;;;;;4911337;29;20408;-68
2022/09/01 04:06:39;;;;;;;3.60;1.92;;;10.50;91.90;;;;;;4899585;29;20398;-69
2022/09/01 04:09:04;;;;;;;7.40;2.80;;;10.40;91.80;;;;;;4899628;29;20053;-70
2022/09/01 04:11:32;;;;;;;8.77;2.90;;;10.30;91.70;;;;;;4902310;29;20544;-68
2022/09/01 04:13:58;;;;;;;6.22;2.83;;;10.30;91.50;;;;;;4906124;29;20039;-67
2022/09/01 04:19:24;;;;;;;11.30;3.78;;;10.20;91.50;;;;;;4905248;29;20106;-68
2022/09/01 04:21:58;;;;;;;14.30;4.70;;;10.10;91.50;;;;;;4911691;29;20028;-68
2022/09/01 04:24:29;;;;;;;6.57;2.90;;;10.10;91.80;;;;;;4909376;29;20076;-68
2022/09/01 04:26:57;;;;;;;5.78;2.13;;;10.10;92.00;;;;;;4906646;29;20231;-68
2022/09/01 04:29:26;;;;;;;5.50;2.25;;;10.30;92.80;;;;;;4904104;29;20357;-69
2022/09/01 04:32:00;;;;;;;3.50;2.20;;;10.30;92.80;;;;;;4911692;29;20040;-68
2022/09/01 04:34:26;;;;;;;3.50;1.90;;;10.30;93.00;;;;;;4913317;29;20159;-67
2022/09/01 04:36:54;;;;;;;3.28;1.73;;;10.40;93.50;;;;;;4916515;29;20456;-67
2022/09/01 04:39:20;;;;;;;3.35;1.98;;;10.50;93.60;;;;;;4910963;29;20035;-68
2022/09/01 04:41:45;;;;;;;4.25;2.40;;;10.60;93.70;;;;;;4910134;29;20020;-68
2022/09/01 04:44:15;;;;;;;5.22;2.10;;;10.70;93.90;;;;;;4911224;29;20494;-68
2022/09/01 04:46:45;;;;;;;4.60;2.25;;;10.70;93.80;;;;;;4912938;29;20388;-68
2022/09/01 04:49:14;;;;;;;4.95;2.22;;;10.80;93.90;;;;;;4912338;29;20024;-68
2022/09/01 04:51:43;;;;;;;3.95;2.33;;;10.80;93.70;;;;;;4911809;29;20484;-68
2022/09/01 04:54:12;;;;;;;3.03;2.15;;;10.80;93.80;;;;;;4904184;29;20024;-69
2022/09/01 04:56:43;;;;;;;4.05;2.22;;;10.90;93.90;;;;;;4903574;29;20425;-67
2022/09/01 04:59:11;;;;;;;3.17;1.95;;;10.90;94.00;;;;;;4900451;29;20218;-69
2022/09/01 05:01:44;;;;;;;2.47;2.00;;;11.00;93.90;;;;;;4910317;29;20127;-69
2022/09/01 05:04:21;;;;;;;3.28;2.30;;;11.00;94.00;;;;;;4912784;29;20029;-69
2022/09/01 05:06:49;;;;;;;5.97;2.63;;;11.10;93.90;;;;;;4917380;29;20336;-69
2022/09/01 05:09:17;;;;;;;4.15;2.22;;;11.20;93.90;;;;;;4908854;29;20469;-69
2022/09/01 05:11:44;;;;;;;5.82;2.33;;;11.20;93.80;;;;;;4911934;29;20031;-69
2022/09/01 05:14:11;;;;;;;2.67;2.00;;;11.30;93.70;;;;;;4902466;29;20055;-69
2022/09/01 05:16:39;;;;;;;4.32;2.13;;;11.30;93.70;;;;;;4912308;29;20111;-70
2022/09/01 05:19:13;;;;;;;3.33;1.88;;;11.30;93.60;;;;;;4911036;29;20429;-71
2022/09/01 05:21:39;;;;;;;6.38;2.38;;;11.40;93.60;;;;;;4910935;29;20072;-70
2022/09/01 05:24:05;;;;;;;3.80;2.08;;;11.50;93.70;;;;;;4904747;29;20031;-70
2022/09/01 05:26:33;;;;;;;4.55;2.00;;;11.50;93.60;;;;;;4900474;29;20020;-70
2022/09/01 05:29:02;;;;;;;5.53;2.13;;;11.60;93.50;;;;;;4906146;29;20032;-69
2022/09/01 05:31:33;;;;;;;5.07;1.75;;;11.60;93.60;;;;;;4909996;29;20190;-69
2022/09/01 05:34:00;;;;;;;9.32;2.05;;;11.70;93.50;;;;;;4909552;29;20492;-70
2022/09/01 05:36:27;;;;;;;2.72;1.70;;;11.80;93.40;;;;;;4914968;29;20237;-69
2022/09/01 05:38:53;;;;;;;3.05;1.65;;;11.80;93.20;;;;;;4915386;29;20477;-69
2022/09/01 05:41:22;;;;;;;4.47;1.92;;;11.80;93.00;;;;;;4910726;29;20128;-70
2022/09/01 05:43:50;;;;;;;5.10;1.80;;;11.90;92.90;;;;;;4913510;29;20075;-69
2022/09/01 05:46:22;;;;;;;3.83;1.50;;;12.00;92.90;;;;;;4910926;29;20024;-69
2022/09/01 05:48:52;;;;;;;2.60;1.65;;;12.00;92.90;;;;;;4900114;29;20314;-69
2022/09/01 05:51:21;;;;;;;8.98;1.70;;;12.10;92.90;;;;;;4905011;29;20059;-69
2022/09/01 05:53:50;;;;;;;2.97;1.67;;;12.10;92.50;;;;;;4907057;29;20463;-69
2022/09/01 05:56:18;;;;;;;2.42;1.60;;;12.20;92.50;;;;;;4914401;29;20031;-69
2022/09/01 05:58:46;;;;;;;2.45;1.42;;;12.30;92.30;;;;;;4915340;29;20078;-71
2022/09/01 06:01:21;;;;;;;3.97;1.52;;;12.30;92.30;;;;;;4910473;29;20031;-69
2022/09/01 06:03:48;;;;;;;3.08;1.50;;;12.40;92.10;;;;;;4912393;29;20029;-69
2022/09/01 06:06:15;;;;;;;5.10;1.65;;;12.60;92.20;;;;;;4897131;29;20016;-69
2022/09/01 06:08:41;;;;;;;2.85;1.27;;;12.60;91.90;;;;;;4896116;29;20052;-70
2022/09/01 06:11:12;;;;;;;1.67;1.13;;;12.90;91.80;;;;;;4895806;29;20029;-69
2022/09/01 06:13:40;;;;;;;4.05;1.08;;;12.90;91.60;;;;;;4899495;29;20024;-69
2022/09/01 06:16:08;;;;;;;1.33;1.08;;;13.10;91.30;;;;;;4914949;29;20382;-69
2022/09/01 06:18:34;;;;;;;2.58;1.20;;;13.30;91.00;;;;;;4915700;29;20194;-71
2022/09/01 06:21:03;;;;;;;1.17;1.02;;;13.40;90.40;;;;;;4911278;29;20040;-70
2022/09/01 06:23:29;;;;;;;3.03;0.88;;;13.50;90.10;;;;;;4898071;29;20020;-70
2022/09/01 06:25:54;;;;;;;2.38;1.17;;;13.60;89.80;;;;;;4911915;29;20099;-69
2022/09/01 06:28:21;;;;;;;2.25;1.02;;;13.70;89.70;;;;;;4915795;29;20127;-69
2022/09/01 06:30:47;;;;;;;3.15;1.20;;;13.90;88.60;;;;;;4911186;29;20036;-69
2022/09/01 06:33:13;;;;;;;2.58;0.77;;;14.00;88.40;;;;;;4915375;29;20043;-69
2022/09/01 06:35:41;;;;;;;1.38;0.80;;;14.10;88.10;;;;;;4905571;29;20494;-70
2022/09/01 06:38:08;;;;;;;1.27;0.73;;;14.30;87.40;;;;;;4904773;29;20039;-69
2022/09/01 06:40:38;;;;;;;1.27;0.90;;;14.40;86.70;;;;;;4899550;29;20083;-70
2022/09/01 06:43:06;;;;;;;1.83;0.80;;;14.50;86.40;;;;;;4910564;29;20174;-70
2022/09/01 06:45:38;;;;;;;0.60;0.60;;;14.60;85.70;;;;;;4911217;29;20116;-71
2022/09/01 06:48:03;;;;;;;0.90;0.63;;;14.70;85.40;;;;;;4911940;29;20040;-70
2022/09/01 06:50:29;;;;;;;0.77;0.60;;;14.80;84.90;;;;;;4908820;29;20393;-70
2022/09/01 06:53:09;;;;;;;2.75;0.70;;;14.90;84.60;;;;;;4910384;29;20408;-70
2022/09/01 06:55:38;;;;;;;1.50;0.57;;;15.00;84.10;;;;;;4908068;29;20033;-70
2022/09/01 06:58:06;;;;;;;1.15;0.70;;;15.10;84.00;;;;;;4902575;29;20036;-70
2022/09/01 07:00:34;;;;;;;2.17;0.80;;;15.20;83.40;;;;;;4906051;29;20414;-70
2022/09/01 07:03:06;;;;;;;4.82;0.70;;;15.20;83.30;;;;;;4908658;29;20036;-70
2022/09/01 07:05:33;;;;;;;1.42;0.50;;;15.30;83.50;;;;;;4913092;29;20031;-70
2022/09/01 07:07:58;;;;;;;0.85;0.60;;;15.50;81.70;;;;;;4895912;29;20104;-70
2022/09/01 07:10:26;;;;;;;1.10;0.63;;;15.50;81.50;;;;;;4903525;29;20032;-71
2022/09/01 07:12:54;;;;;;;0.93;0.65;;;15.60;80.70;;;;;;4900626;29;20025;-69
2022/09/01 07:15:20;;;;;;;3.10;0.57;;;15.70;79.50;;;;;;4895932;29;20138;-69
2022/09/01 07:17:55;;;;;;;4.13;0.50;;;15.70;78.90;;;;;;4913899;29;20035;-70
2022/09/01 07:20:28;;;;;;;0.57;0.40;;;15.80;78.10;;;;;;4909445;29;20107;-70
2022/09/01 07:22:55;;;;;;;1.50;0.50;;;15.90;77.80;;;;;;4914635;29;20031;-70
2022/09/01 07:25:21;;;;;;;1.38;0.50;;;16.00;77.40;;;;;;4908412;29;20080;-70
2022/09/01 07:27:49;;;;;;;2.20;0.60;;;16.00;75.30;;;;;;4899016;29;20400;-70
2022/09/01 07:30:20;;;;;;;2.70;0.80;;;16.10;75.10;;;;;;4904850;29;20397;-70
2022/09/01 07:32:46;;;;;;;1.85;0.55;;;16.10;75.60;;;;;;4896088;29;20123;-70
2022/09/01 07:35:14;;;;;;;0.73;0.60;;;16.20;74.90;;;;;;4903656;29;20086;-70
2022/09/01 07:37:40;;;;;;;0.73;0.45;;;16.20;74.10;;;;;;4902011;29;20063;-70
2022/09/01 07:40:09;;;;;;;1.00;0.40;;;16.40;73.10;;;;;;4909166;29;20067;-70
2022/09/01 07:42:38;;;;;;;2.03;0.57;;;16.60;72.60;;;;;;4907620;29;20036;-70
2022/09/01 07:45:08;;;;;;;4.65;0.60;;;16.70;72.70;;;;;;4907808;29;20028;-69
2022/09/01 07:47:36;;;;;;;1.02;0.43;;;16.70;72.10;;;;;;4907289;29;20111;-70
2022/09/01 07:50:05;;;;;;;1.98;0.52;;;16.70;71.50;;;;;;4899837;29;20024;-69
2022/09/01 07:52:34;;;;;;;1.33;0.45;;;16.80;69.80;;;;;;4906920;29;20120;-70
2022/09/01 07:55:00;;;;;;;0.95;0.45;;;16.90;69.70;;;;;;4908390;29;20099;-70
2022/09/01 07:57:26;;;;;;;0.75;0.35;;;17.10;70.50;;;;;;4902188;29;20115;-70
2022/09/01 07:59:54;;;;;;;2.45;0.40;;;17.30;68.30;;;;;;4910835;29;20071;-69
2022/09/01 08:02:20;;;;;;;2.80;0.60;;;17.50;68.10;;;;;;4904315;29;20100;-70
2022/09/01 08:04:45;;;;;;;2.17;0.50;;;17.60;67.50;;;;;;4900670;29;20094;-69
2022/09/01 08:07:13;;;;;;;1.60;0.40;;;17.80;66.00;;;;;;4896892;29;20068;-70
2022/09/01 08:09:38;;;;;;;0.52;0.40;;;18.00;65.50;;;;;;4899979;29;20036;-71
2022/09/01 08:12:06;;;;;;;0.70;0.40;;;18.10;65.20;;;;;;4900427;29;20051;-69
2022/09/01 08:14:32;;;;;;;1.40;0.45;;;18.40;64.20;;;;;;4909167;29;20071;-70
2022/09/01 08:16:58;;;;;;;0.40;0.30;;;18.60;63.80;;;;;;4902586;29;20064;-69
2022/09/01 08:19:23;;;;;;;1.55;0.30;;;18.60;63.60;;;;;;4909163;29;20035;-69
2022/09/01 08:21:49;;;;;;;1.20;0.40;;;18.80;63.20;;;;;;4903226;29;20037;-69
2022/09/01 08:24:15;;;;;;;0.60;0.40;;;18.90;61.50;;;;;;4894300;29;20480;-69
2022/09/01 08:26:40;;;;;;;2.00;0.50;;;19.00;60.90;;;;;;4906423;29;20039;-71
2022/09/01 08:29:06;;;;;;;1.73;0.32;;;19.20;59.00;;;;;;4909714;29;20440;-70
2022/09/01 08:31:32;;;;;;;0.90;0.28;;;19.00;59.50;;;;;;4910041;29;20444;-69
2022/09/01 08:33:58;;;;;;;0.55;0.40;;;19.30;58.50;;;;;;4901707;29;20032;-70
2022/09/01 08:36:24;;;;;;;3.72;0.70;;;19.50;58.60;;;;;;4909735;29;20063;-69
2022/09/01 08:38:50;;;;;;;0.70;0.40;;;19.60;57.90;;;;;;4898125;29;20085;-69
2022/09/01 08:41:49;;;;;;;0.98;0.28;;;19.80;57.10;;;;;;4910225;29;20487;-69
2022/09/01 08:44:40;;;;;;;0.88;0.30;;;19.80;56.30;;;;;;4910057;29;20131;-69
2022/09/01 08:47:11;;;;;;;0.50;0.25;;;19.70;54.90;;;;;;4906782;29;20107;-70
2022/09/01 08:49:39;;;;;;;1.63;0.38;;;20.10;56.10;;;;;;4897936;29;20052;-70
2022/09/01 08:52:16;;;;;;;0.57;0.35;;;20.40;55.50;;;;;;4904859;29;20073;-69
2022/09/01 08:54:56;;;;;;;0.77;0.28;;;20.30;52.40;;;;;;4903916;29;20163;-70
2022/09/01 08:57:35;;;;;;;1.33;0.47;;;20.40;52.60;;;;;;4900458;29;20387;-69
2022/09/01 09:00:01;;;;;;;2.92;0.40;;;20.70;51.80;;;;;;4909644;29;20423;-70
2022/09/01 09:02:52;;;;;;;1.25;0.50;;;20.80;52.70;;;;;;4906148;29;20024;-69
2022/09/01 09:05:32;;;;;;;;;;;20.80;50.50;;;;;;4910620;29;20043;-70
2022/09/01 09:08:16;;;;;;;0.85;0.25;;;21.00;51.50;;;;;;4898352;29;19957;-69
2022/09/01 09:10:56;;;;;;;1.08;0.32;;;21.10;50.30;;;;;;4909066;29;20084;-71
2022/09/01 09:13:57;;;;;;;0.55;0.30;;;21.40;49.00;;;;;;4899364;29;20442;-71
2022/09/01 09:16:28;;;;;;;0.75;0.30;;;21.40;45.80;;;;;;4908594;29;20020;-71
2022/09/01 09:18:59;;;;;;;0.40;0.30;;;21.70;47.30;;;;;;4908140;29;20126;-70
2022/09/01 09:21:34;;;;;;;0.60;0.20;;;21.60;45.50;;;;;;4903059;29;20029;-70
2022/09/01 09:24:06;;;;;;;0.43;0.30;;;21.50;44.60;;;;;;4907911;29;20150;-71
2022/09/01 09:26:31;;;;;;;1.63;0.57;;;21.80;46.30;;;;;;4909782;29;20240;-72
2022/09/01 09:28:57;;;;;;;0.60;0.35;;;21.80;45.20;;;;;;4907228;29;20567;-71
2022/09/01 09:31:26;;;;;;;2.50;0.40;;;21.60;45.20;;;;;;4905640;29;20040;-71
2022/09/01 09:33:52;;;;;;;1.10;0.40;;;21.60;45.80;;;;;;4908777;29;20485;-70
2022/09/01 09:36:20;;;;;;;2.80;0.55;;;22.00;45.70;;;;;;4898717;29;20036;-70
2022/09/01 09:38:46;;;;;;;0.40;0.32;;;22.20;44.00;;;;;;4912492;29;20059;-71
2022/09/01 09:41:22;;;;;;;0.45;0.30;;;22.10;43.80;;;;;;4912388;29;20040;-70
2022/09/01 09:43:58;;;;;;;1.77;0.40;;;22.30;43.90;;;;;;4900902;29;20095;-71
2022/09/01 09:46:37;;;;;;;2.35;0.30;;;22.70;43.60;;;;;;4897105;29;20016;-70
2022/09/01 09:49:27;;;;;;;0.70;0.35;;;22.80;42.90;;;;;;4909487;29;20428;-71
2022/09/01 09:52:00;;;;;;;0.80;0.30;;;22.70;41.40;;;;;;4909834;29;20040;-71
2022/09/01 09:54:31;;;;;;;2.20;0.30;;;22.90;40.10;;;;;;4907761;29;20024;-70
2022/09/01 09:57:12;;;;;;;;;;;23.00;40.60;;;;;;4896178;29;20318;-71
2022/09/01 09:59:40;;;;;;;1.98;0.40;;;23.10;40.10;;;;;;4911866;29;19988;-71
2022/09/01 10:02:32;;;;;;;0.40;0.25;;;23.00;40.50;;;;;;4906168;29;20039;-70
2022/09/01 10:05:00;;;;;;;0.70;0.20;;;23.20;38.30;;;;;;4898609;29;20115;-71
2022/09/01 10:07:36;;;;;;;0.47;0.30;;;23.30;40.90;;;;;;4914817;29;20043;-73
2022/09/01 10:10:23;;;;;;;1.23;0.40;;;23.40;39.30;;;;;;4908800;29;20034;-73
2022/09/01 10:12:53;;;;;;;2.58;0.57;;;23.50;40.20;;;;;;4905447;29;20055;-73
2022/09/01 10:15:22;;;;;;;0.98;0.40;;;23.60;40.10;;;;;;4902085;29;20029;-73
2022/09/01 10:17:50;;;;;;;2.15;0.40;;;23.90;38.70;;;;;;4902256;29;20131;-73
2022/09/01 10:20:22;;;;;;;2.20;0.40;;;24.00;39.00;;;;;;4899698;29;20141;-73
2022/09/01 10:22:48;;;;;;;1.05;0.30;;;23.80;38.90;;;;;;4903403;29;20100;-73
2022/09/01 10:25:34;;;;;;;0.30;0.30;;;24.00;39.20;;;;;;4906043;29;20031;-73
2022/09/01 10:28:24;;;;;;;1.38;0.30;;;23.80;39.20;;;;;;4904750;29;20036;-73
2022/09/01 10:30:52;;;;;;;1.70;0.82;;;24.00;37.10;;;;;;4901840;29;20040;-73
2022/09/01 10:33:19;;;;;;;1.35;0.40;;;24.00;38.60;;;;;;4907898;29;20029;-73
2022/09/01 10:35:49;;;;;;;0.40;0.30;;;23.80;37.50;;;;;;4898445;29;20062;-73
2022/09/01 10:38:19;;;;;;;3.83;0.35;;;24.00;38.60;;;;;;4900654;29;20357;-73
2022/09/01 10:40:47;;;;;;;0.82;0.35;;;24.00;36.80;;;;;;4908005;29;20028;-73
2022/09/01 10:43:34;;;;;;;0.57;0.20;;;24.00;36.50;;;;;;4910584;29;20020;-74
2022/09/01 10:46:07;;;;;;;0.30;0.22;;;23.40;37.00;;;;;;4903132;29;20080;-74
2022/09/01 10:48:34;;;;;;;0.43;0.28;;;23.80;38.00;;;;;;4909836;29;20048;-74
2022/09/01 10:51:12;;;;;;;0.73;0.30;;;24.10;38.10;;;;;;4901537;29;20048;-73
2022/09/01 10:53:39;;;;;;;3.40;0.25;;;24.50;36.90;;;;;;4902863;29;21432;-74
2022/09/01 10:56:13;;;;;;;0.20;0.20;;;24.70;35.40;;;;;;4911689;29;20104;-73
2022/09/01 10:58:57;;;;;;;0.70;0.20;;;25.10;35.50;;;;;;4908775;29;20052;-73
2022/09/01 11:01:44;;;;;;;1.02;0.30;;;25.40;35.80;;;;;;4902210;29;20028;-71
2022/09/01 11:04:15;;;;;;;2.00;0.20;;;25.20;35.10;;;;;;4914886;29;20032;-71
2022/09/01 11:06:40;;;;;;;0.80;0.25;;;25.40;35.30;;;;;;4908212;29;20029;-71
2022/09/01 11:09:20;;;;;;;0.40;0.30;;;25.30;34.30;;;;;;4902698;29;20103;-72
2022/09/01 11:12:20;;;;;;;4.80;0.50;;;25.00;34.40;;;;;;4900762;29;20051;-72
2022/09/01 11:15:07;;;;;;;0.50;0.30;;;24.90;36.40;;;;;;4901793;29;20506;-69
2022/09/01 11:17:38;;;;;;;0.73;0.38;;;24.60;36.00;;;;;;4897840;29;20099;-70
2022/09/01 11:20:09;;;;;;;0.30;0.30;;;25.00;33.50;;;;;;4913172;29;20479;-69
2022/09/01 11:22:42;;;;;;;0.80;0.30;;;25.10;33.90;;;;;;4911966;29;20043;-69
2022/09/01 11:25:07;;;;;;;0.30;0.30;;;24.50;35.40;;;;;;4908099;29;20031;-70
2022/09/01 11:27:48;;;;;;;0.25;0.17;;;24.80;34.30;;;;;;4905331;29;20028;-69
2022/09/01 11:30:21;;;;;;;0.17;0.17;;;25.20;35.50;;;;;;4900724;29;20017;-71
2022/09/01 11:32:51;;;;;;;1.05;0.20;;;25.50;34.50;;;;;;4894197;29;20037;-69
2022/09/01 11:35:20;;;;;;;0.13;0.13;;;25.50;35.30;;;;;;4901707;29;20028;-69
2022/09/01 11:37:54;;;;;;;3.50;0.65;;;25.90;34.70;;;;;;4899801;29;20032;-69
2022/09/01 11:40:25;;;;;;;0.73;0.30;;;26.00;34.90;;;;;;4913903;29;20425;-68
2022/09/01 11:42:53;;;;;;;3.10;0.40;;;25.70;35.20;;;;;;4913287;29;20511;-69
2022/09/01 11:45:29;;;;;;;1.13;0.22;;;25.40;34.70;;;;;;4901556;29;20087;-69
2022/09/01 11:47:59;;;;;;;0.95;0.28;;;26.40;34.50;;;;;;4898753;29;20072;-69
2022/09/01 11:50:34;;;;;;;0.30;0.30;;;26.20;34.30;;;;;;4909806;29;20373;-69
2022/09/01 11:53:03;;;;;;;2.13;0.20;;;25.90;34.40;;;;;;4911514;29;20462;-69
2022/09/01 11:55:42;;;;;;;0.25;0.25;;;26.00;32.90;;;;;;4900460;29;20039;-69
2022/09/01 11:58:11;;;;;;;0.40;0.20;;;26.60;32.90;;;;;;4907187;29;20036;-69
2022/09/01 12:00:39;;;;;;;2.05;0.40;;;26.70;33.20;;;;;;4910471;29;20040;-70
2022/09/01 12:03:25;;;;;;;0.20;0.20;;;27.50;32.50;;;;;;4905359;29;20043;-69
2022/09/01 12:05:58;;;;;;;1.45;0.63;;;28.20;31.00;;;;;;4901224;29;20067;-70
2022/09/01 12:08:26;;;;;;;2.38;0.50;;;27.00;31.60;;;;;;4906111;29;20736;-69
2022/09/01 12:11:11;;;;;;;0.82;0.32;;;27.90;31.20;;;;;;4907649;29;20040;-69
2022/09/01 12:13:38;;;;;;;2.97;0.30;;;28.00;32.00;;;;;;4906517;29;20345;-69
2022/09/01 12:16:07;;;;;;;0.70;0.30;;;28.70;32.10;;;;;;4907701;29;20135;-69
2022/09/01 12:18:38;;;;;;;1.48;0.57;;;27.90;32.50;;;;;;4899259;29;20029;-69
2022/09/01 12:21:07;;;;;;;0.93;0.20;;;27.20;32.80;;;;;;4896483;29;20103;-69
2022/09/01 12:23:42;;;;;;;2.10;0.45;;;26.00;33.30;;;;;;4905161;29;20107;-68
2022/09/01 12:26:27;;;;;;;1.05;0.30;;;25.70;35.30;;;;;;4901348;29;20731;-69
2022/09/01 12:28:54;;;;;;;0.80;0.30;;;25.20;35.60;;;;;;4904378;29;20032;-68
2022/09/01 12:31:23;;;;;;;2.15;0.47;;;25.10;36.10;;;;;;4903204;29;20079;-68
2022/09/01 12:33:51;;;;;;;1.38;0.40;;;25.00;37.20;;;;;;4901397;29;20037;-68
2022/09/01 12:36:27;;;;;;;0.88;0.43;;;24.50;37.40;;;;;;4899481;29;20028;-68
2022/09/01 12:38:54;;;;;;;3.25;0.50;;;24.80;37.10;;;;;;4901631;29;20056;-68
2022/09/01 12:41:36;;;;;;;0.30;0.28;;;25.50;37.10;;;;;;4906413;29;20123;-69
2022/09/01 12:44:36;;;;;;;1.73;0.40;;;26.60;34.70;;;;;;4911192;29;20055;-69
2022/09/01 12:47:07;;;;;;;1.17;0.40;;;27.70;32.40;;;;;;4903006;29;20040;-69
2022/09/01 12:49:41;;;;;;;1.50;0.45;;;26.90;33.00;;;;;;4897237;29;20084;-69
2022/09/01 12:52:18;;;;;;;2.15;0.50;;;26.20;34.20;;;;;;4911130;29;20036;-68
2022/09/01 12:54:44;;;;;;;1.60;0.40;;;25.40;35.00;;;;;;4903512;29;20020;-69
2022/09/01 12:57:26;;;;;;;1.75;0.35;;;25.40;35.30;;;;;;4907293;29;20085;-69
2022/09/01 13:00:11;;;;;;;2.17;0.38;;;25.90;35.70;;;;;;4916206;29;20363;-69
2022/09/01 13:03:04;;;;;;;0.70;0.30;;;25.90;35.10;;;;;;4911257;29;20357;-69
2022/09/01 13:05:40;;;;;;;2.60;0.38;;;25.50;35.40;;;;;;4900845;29;20182;-69
2022/09/01 13:08:12;;;;;;;0.30;0.30;;;25.00;36.50;;;;;;4905106;29;20165;-69
2022/09/01 13:10:41;;;;;;;1.30;0.40;;;24.60;37.00;;;;;;4908848;29;20032;-68